createdAt,value
2018-06-24T00:00:29.358Z,25.8
2018-06-24T00:10:28.587Z,25.9
2018-06-24T00:20:27.813Z,26
2018-06-24T00:30:27.039Z,26.1
2018-06-24T00:40:26.268Z,26.1
2018-06-24T00:50:25.501Z,26.2
2018-06-24T01:00:24.746Z,26.3
2018-06-24T01:10:23.997Z,26.3
2018-06-24T01:20:23.178Z,26.4
2018-06-24T01:30:22.401Z,26.3
2018-06-24T01:40:21.632Z,26.4
2018-06-24T01:50:20.854Z,26.5
2018-06-24T02:00:20.084Z,26.6
2018-06-24T02:10:19.305Z,26.6
2018-06-24T02:20:18.532Z,26.7
2018-06-24T02:30:17.757Z,26.8
2018-06-24T02:40:16.981Z,26.8
2018-06-24T02:50:16.207Z,26.8
2018-06-24T03:00:15.433Z,26.9
2018-06-24T03:10:14.657Z,26.9
2018-06-24T03:20:13.886Z,26.9
2018-06-24T03:30:13.160Z,24.4
2018-06-24T03:40:12.336Z,23.4
2018-06-24T03:50:11.568Z,23.4
2018-06-24T04:00:10.790Z,23.4
2018-06-24T04:10:10.021Z,23.4
2018-06-24T04:20:09.243Z,23.6
2018-06-24T04:30:08.469Z,23.7
2018-06-24T04:40:07.699Z,23.9
2018-06-24T04:50:06.923Z,24
2018-06-24T05:00:06.155Z,23.8
2018-06-24T05:10:05.383Z,23.9
2018-06-24T05:20:04.607Z,24.1
2018-06-24T05:30:03.832Z,24.1
2018-06-24T05:40:03.060Z,24.3
2018-06-24T05:50:02.288Z,24.6
2018-06-24T06:00:01.523Z,24.9
2018-06-24T06:10:00.754Z,25.3
2018-06-24T06:19:59.969Z,25.4
2018-06-24T06:29:59.197Z,25.2
2018-06-24T06:39:58.426Z,25.1
2018-06-24T06:49:57.654Z,25.4
2018-06-24T06:59:56.887Z,26.1
2018-06-24T07:09:56.110Z,26.8
2018-06-24T07:19:55.336Z,27.4
2018-06-24T07:29:54.569Z,28.1
2018-06-24T07:39:53.840Z,28.8
2018-06-24T07:49:53.020Z,29.4
2018-06-24T07:59:52.247Z,29.8
2018-06-24T08:09:51.475Z,30.3
2018-06-24T08:19:50.752Z,30.7
2018-06-24T08:29:49.932Z,31.1
2018-06-24T08:39:49.160Z,31.2
2018-06-24T08:49:48.394Z,31.8
2018-06-24T08:59:47.621Z,32.3
